createdAt,value
2022-10-11T00:00:55.183Z,5.75
2022-10-11T00:03:22.671Z,5.38
2022-10-11T00:05:50.059Z,5.28
2022-10-11T00:08:17.429Z,5.05
2022-10-11T00:10:44.932Z,4.78
2022-10-11T00:13:12.357Z,5.72
2022-10-11T00:15:40.855Z,5.55
2022-10-11T00:18:09.207Z,5.60
2022-10-11T00:20:36.631Z,6.05
2022-10-11T00:23:04.979Z,5.05
2022-10-11T00:25:33.058Z,5.43
2022-10-11T00:28:00.462Z,6.25
2022-10-11T00:30:28.065Z,5.57
2022-10-11T00:32:55.895Z,5.60
2022-10-11T00:35:23.261Z,5.47
2022-10-11T00:37:50.653Z,6.00
2022-10-11T00:40:21.157Z,5.53
2022-10-11T00:42:49.551Z,5.60
2022-10-11T00:45:39.643Z,5.53
2022-10-11T00:48:27.476Z,5.75
2022-10-11T00:50:58.534Z,6.03
2022-10-11T00:53:30.390Z,5.88
2022-10-11T00:58:36.977Z,5.82
2022-10-11T01:01:05.170Z,5.60
2022-10-11T01:03:35.981Z,5.80
2022-10-11T01:06:04.360Z,6.07
2022-10-11T01:08:34.129Z,5.82
2022-10-11T01:11:03.188Z,5.97
2022-10-11T01:13:52.179Z,6.50
2022-10-11T01:16:49.975Z,6.05
2022-10-11T01:19:58.952Z,5.53
2022-10-11T01:22:48.001Z,5.75
2022-10-11T01:25:26.888Z,5.30
2022-10-11T01:28:19.034Z,5.60
2022-10-11T01:30:47.287Z,5.53
2022-10-11T01:33:44.709Z,5.40
2022-10-11T01:36:32.591Z,5.38
2022-10-11T01:39:10.747Z,4.75
2022-10-11T01:41:47.458Z,5.07
2022-10-11T01:44:15.539Z,5.78
2022-10-11T01:46:43.299Z,5.25
2022-10-11T01:49:10.995Z,5.13
2022-10-11T01:51:47.498Z,4.60
2022-10-11T01:55:08.246Z,5.57
2022-10-11T01:58:30.302Z,5.53
2022-10-11T02:01:32.733Z,4.22
2022-10-11T02:04:22.428Z,4.68
2022-10-11T02:07:16.900Z,4.40
2022-10-11T02:10:11.491Z,5.43
2022-10-11T02:12:57.713Z,4.65
2022-10-11T02:15:30.967Z,5.10
2022-10-11T02:18:06.349Z,4.75
2022-10-11T02:20:37.248Z,5.20
2022-10-11T02:23:14.997Z,5.03
2022-10-11T02:25:45.101Z,5.40
2022-10-11T02:28:25.323Z,5.28
2022-10-11T02:30:55.021Z,5.60
2022-10-11T02:33:37.294Z,5.05
2022-10-11T02:36:19.515Z,4.85
2022-10-11T02:38:57.243Z,5.18
2022-10-11T02:41:38.465Z,4.85
2022-10-11T02:44:26.207Z,4.93
2022-10-11T02:46:54.800Z,5.70
2022-10-11T02:49:22.339Z,4.18
2022-10-11T02:51:49.724Z,5.20
2022-10-11T02:54:17.409Z,4.53
2022-10-11T02:56:44.765Z,4.78
2022-10-11T02:59:12.143Z,4.60
2022-10-11T03:01:39.802Z,4.68
2022-10-11T03:04:07.216Z,4.50
2022-10-11T03:06:34.755Z,4.95
2022-10-11T03:09:02.122Z,4.78
2022-10-11T03:11:29.561Z,4.38
2022-10-11T03:13:57.053Z,4.47
2022-10-11T03:16:24.511Z,3.97
2022-10-11T03:18:51.858Z,4.22
2022-10-11T03:21:19.379Z,4.10
2022-10-11T03:23:46.771Z,3.90
2022-10-11T03:26:14.141Z,4.05
2022-10-11T03:28:41.604Z,3.75
2022-10-11T03:31:09.069Z,3.63
2022-10-11T03:33:36.793Z,3.78
2022-10-11T03:36:05.035Z,4.40
2022-10-11T03:38:33.268Z,4.13
2022-10-11T03:41:00.667Z,3.72
2022-10-11T03:43:28.101Z,4.05
2022-10-11T03:45:55.622Z,4.00
2022-10-11T03:48:23.012Z,3.80
2022-10-11T03:50:50.523Z,3.65
2022-10-11T03:53:18.006Z,3.63
2022-10-11T03:55:45.460Z,3.45
2022-10-11T03:58:12.866Z,3.75
2022-10-11T04:00:40.303Z,4.40
2022-10-11T04:03:07.713Z,4.05
2022-10-11T04:05:35.125Z,3.50
2022-10-11T04:08:02.647Z,4.18
2022-10-11T04:10:31.483Z,3.17
2022-10-11T04:12:58.847Z,3.15
2022-10-11T04:15:26.246Z,2.88
2022-10-11T04:17:53.598Z,3.05
2022-10-11T04:20:20.992Z,3.33
2022-10-11T04:22:48.461Z,3.95
2022-10-11T04:25:15.918Z,3.90
2022-10-11T04:27:43.295Z,3.67
2022-10-11T04:30:11.889Z,3.55
2022-10-11T04:32:39.357Z,3.92
2022-10-11T04:35:07.127Z,3.63
2022-10-11T04:37:35.192Z,4.15
2022-10-11T04:40:03.678Z,3.70
2022-10-11T04:42:31.161Z,3.50
2022-10-11T04:44:58.652Z,3.15
2022-10-11T04:47:26.070Z,3.10
2022-10-11T04:49:53.415Z,3.05
2022-10-11T04:52:25.399Z,3.00
2022-10-11T04:54:53.307Z,3.30
2022-10-11T04:57:20.675Z,2.88
2022-10-11T04:59:50.219Z,2.70
2022-10-11T05:02:18.171Z,3.10
2022-10-11T05:04:46.695Z,3.00
2022-10-11T05:07:14.429Z,3.20
2022-10-11T05:09:41.804Z,3.17
2022-10-11T05:12:10.592Z,3.10
2022-10-11T05:14:37.990Z,3.60
2022-10-11T05:17:05.792Z,3.53
2022-10-11T05:19:34.328Z,3.55
2022-10-11T05:22:01.695Z,3.42
2022-10-11T05:24:29.063Z,3.08
2022-10-11T05:26:59.803Z,3.00
2022-10-11T05:29:30.559Z,3.28
2022-10-11T05:31:57.944Z,3.30
2022-10-11T05:34:25.413Z,3.00
2022-10-11T05:36:52.812Z,3.70
2022-10-11T05:39:20.248Z,3.13
2022-10-11T05:41:48.848Z,3.33
2022-10-11T05:44:16.340Z,4.20
2022-10-11T05:46:43.725Z,3.92
2022-10-11T05:49:12.237Z,4.03
2022-10-11T05:51:39.757Z,4.60
2022-10-11T05:54:07.134Z,4.43
2022-10-11T05:56:34.609Z,3.97
2022-10-11T05:59:02.700Z,3.80
2022-10-11T06:01:30.198Z,4.30
2022-10-11T06:03:57.769Z,4.10
2022-10-11T06:06:25.170Z,3.92
2022-10-11T06:08:52.513Z,5.05
2022-10-11T06:11:25.787Z,5.07
2022-10-11T06:13:57.918Z,5.28
2022-10-11T06:16:26.850Z,5.38
2022-10-11T06:18:56.723Z,4.43
2022-10-11T06:21:24.875Z,5.05
2022-10-11T06:23:56.809Z,6.13
2022-10-11T06:26:28.047Z,5.85
2022-10-11T06:28:56.640Z,5.80
2022-10-11T06:31:24.834Z,5.72
2022-10-11T06:33:52.405Z,5.60
2022-10-11T06:36:19.837Z,6.05
2022-10-11T06:38:47.360Z,5.43
2022-10-11T06:41:23.907Z,6.63
2022-10-11T06:43:51.890Z,7.28
2022-10-11T06:46:23.133Z,9.73
2022-10-11T06:48:51.440Z,8.35
2022-10-11T06:52:22.897Z,7.53
2022-10-11T06:54:50.587Z,6.47
2022-10-11T06:57:18.268Z,5.90
2022-10-11T06:59:45.630Z,5.60
2022-10-11T07:02:13.059Z,5.38
2022-10-11T07:04:40.441Z,6.88
2022-10-11T07:07:07.907Z,7.15
2022-10-11T07:09:35.381Z,6.35
2022-10-11T07:12:02.859Z,6.18
2022-10-11T07:14:30.262Z,6.68
2022-10-11T07:16:57.641Z,7.18
2022-10-11T07:19:26.090Z,5.93
2022-10-11T07:21:53.491Z,6.28
2022-10-11T07:24:20.905Z,7.43
2022-10-11T07:26:48.371Z,7.30
2022-10-11T07:29:16.062Z,9.13
2022-10-11T07:31:44.112Z,10.65
2022-10-11T07:34:13.076Z,10.50
2022-10-11T07:36:40.635Z,11.48
2022-10-11T07:39:08.818Z,11.73
2022-10-11T07:41:39.677Z,12.90
2022-10-11T07:44:09.354Z,13.07
2022-10-11T07:46:37.933Z,12.75
2022-10-11T07:49:05.509Z,13.85
2022-10-11T07:51:33.349Z,13.27
2022-10-11T07:54:07.539Z,12.93
2022-10-11T07:56:36.897Z,13.95
2022-10-11T07:59:04.518Z,14.38
2022-10-11T08:01:33.072Z,14.23
2022-10-11T08:04:00.849Z,14.73
2022-10-11T08:06:32.431Z,14.85
2022-10-11T08:09:02.233Z,14.63
2022-10-11T08:11:37.650Z,15.82
2022-10-11T08:14:11.116Z,14.50
2022-10-11T08:16:40.257Z,14.15
2022-10-11T08:19:07.949Z,14.10
2022-10-11T08:21:35.929Z,13.85
2022-10-11T08:24:05.442Z,13.38
2022-10-11T08:26:34.253Z,11.60
2022-10-11T08:29:05.228Z,12.10
2022-10-11T08:31:35.346Z,13.70
2022-10-11T08:34:02.814Z,13.07
2022-10-11T08:36:30.271Z,10.80
2022-10-11T08:38:58.696Z,11.25
2022-10-11T08:41:41.293Z,12.20
2022-10-11T08:44:26.752Z,11.13
2022-10-11T08:47:30.106Z,11.40
2022-10-11T08:52:51.177Z,9.95
2022-10-11T08:55:43.947Z,7.82
2022-10-11T08:58:18.548Z,8.90
2022-10-11T09:00:50.293Z,8.45
2022-10-11T09:06:28.121Z,7.43
2022-10-11T09:09:21.834Z,6.40
2022-10-11T09:12:05.459Z,7.13
2022-10-11T09:14:48.032Z,10.85
2022-10-11T09:18:04.162Z,14.10
2022-10-11T09:21:25.457Z,22.13
2022-10-11T09:24:13.523Z,15.40
2022-10-11T09:26:56.083Z,7.80
2022-10-11T09:29:58.336Z,8.75
2022-10-11T09:32:40.165Z,7.45
2022-10-11T09:35:20.971Z,6.40
2022-10-11T09:37:59.149Z,7.85
2022-10-11T09:41:01.763Z,5.45
2022-10-11T09:43:29.644Z,5.45
2022-10-11T09:45:57.048Z,4.85
2022-10-11T09:48:33.077Z,5.20
2022-10-11T09:51:12.210Z,4.65
2022-10-11T09:54:14.225Z,5.30
2022-10-11T09:56:46.050Z,4.07
2022-10-11T09:59:30.288Z,4.25
2022-10-11T10:02:21.094Z,3.72
2022-10-11T10:05:18.323Z,3.15
2022-10-11T10:08:09.583Z,3.70
2022-10-11T10:10:43.166Z,4.07
2022-10-11T10:13:25.543Z,3.40
2022-10-11T10:15:57.860Z,3.45
2022-10-11T10:18:42.458Z,3.45
2022-10-11T10:21:14.933Z,3.03
2022-10-11T10:23:43.305Z,3.25
2022-10-11T10:26:24.279Z,2.90
2022-10-11T10:29:10.941Z,3.20
2022-10-11T10:34:58.658Z,2.80
2022-10-11T10:37:45.746Z,2.67
2022-10-11T10:40:22.764Z,2.50
2022-10-11T10:42:50.870Z,3.17
2022-10-11T10:45:24.812Z,2.20
2022-10-11T10:49:18.771Z,2.78
2022-10-11T10:51:39.553Z,2.72
2022-10-11T10:54:31.229Z,2.30
2022-10-11T10:57:05.361Z,2.70
2022-10-11T10:59:51.590Z,2.58
2022-10-11T11:02:48.517Z,2.50
2022-10-11T11:05:48.440Z,2.40
2022-10-11T11:08:25.238Z,2.63
2022-10-11T11:11:40.771Z,3.15
2022-10-11T11:14:49.808Z,2.92
2022-10-11T11:17:29.552Z,2.80
2022-10-11T11:20:21.171Z,2.90
2022-10-11T11:23:06.783Z,2.67
2022-10-11T11:25:56.082Z,2.20
2022-10-11T11:28:49.879Z,2.40
2022-10-11T11:31:51.911Z,2.22
2022-10-11T11:37:20.797Z,2.45
2022-10-11T11:39:52.597Z,2.22
2022-10-11T11:42:55.611Z,2.90
2022-10-11T11:45:29.570Z,2.42
2022-10-11T11:48:10.594Z,2.58
2022-10-11T11:50:43.810Z,2.22
2022-10-11T11:53:35.523Z,2.20
2022-10-11T11:56:31.725Z,2.22
2022-10-11T11:59:27.038Z,2.95
2022-10-11T12:02:15.484Z,2.58
2022-10-11T12:04:45.977Z,2.50
2022-10-11T12:07:19.487Z,2.33
2022-10-11T12:09:52.730Z,2.60
2022-10-11T12:12:37.535Z,2.28
2022-10-11T12:15:26.649Z,2.75
2022-10-11T12:17:57.373Z,2.90
2022-10-11T12:20:37.931Z,2.37
2022-10-11T12:23:28.120Z,2.35
2022-10-11T12:26:29.460Z,2.35
2022-10-11T12:29:18.274Z,2.60
2022-10-11T12:32:14.097Z,2.03
2022-10-11T12:34:45.080Z,2.45
2022-10-11T12:37:18.984Z,2.05
2022-10-11T12:39:49.278Z,2.33
2022-10-11T12:42:36.828Z,3.17
2022-10-11T12:45:13.207Z,2.60
2022-10-11T12:47:54.115Z,2.42
2022-10-11T12:50:37.524Z,2.37
2022-10-11T12:53:28.293Z,2.38
2022-10-11T12:56:07.345Z,2.40
2022-10-11T12:58:46.289Z,1.90
2022-10-11T13:01:25.249Z,2.20
2022-10-11T13:04:10.946Z,2.22
2022-10-11T13:06:50.290Z,2.10
2022-10-11T13:09:29.714Z,2.33
2022-10-11T13:12:19.287Z,2.20
2022-10-11T13:15:09.108Z,2.45
2022-10-11T13:17:39.867Z,2.40
2022-10-11T13:20:17.476Z,2.97
2022-10-11T13:25:23.656Z,2.28
2022-10-11T13:27:54.463Z,2.00
2022-10-11T13:30:31.724Z,2.20
2022-10-11T13:33:01.652Z,2.45
2022-10-11T13:35:34.314Z,2.42
2022-10-11T13:38:02.997Z,2.45
2022-10-11T13:40:31.780Z,2.15
2022-10-11T13:43:00.323Z,2.13
2022-10-11T13:45:32.682Z,2.10
2022-10-11T13:48:00.336Z,2.42
2022-10-11T13:50:35.349Z,2.40
2022-10-11T13:53:11.521Z,2.20
2022-10-11T13:55:41.984Z,1.90
2022-10-11T13:58:19.091Z,2.10
2022-10-11T14:01:00.073Z,2.30
2022-10-11T14:04:02.631Z,2.07
2022-10-11T14:06:56.171Z,2.05
2022-10-11T14:09:34.683Z,2.75
2022-10-11T14:12:30.883Z,2.03
2022-10-11T14:15:05.153Z,2.45
2022-10-11T14:17:44.137Z,2.55
2022-10-11T14:20:29.533Z,1.83
2022-10-11T14:23:00.090Z,2.08
2022-10-11T14:25:28.622Z,1.98
2022-10-11T14:27:56.290Z,1.58
2022-10-11T14:30:27.641Z,1.90
2022-10-11T14:35:32.788Z,3.72
2022-10-11T14:38:00.635Z,2.17
2022-10-11T14:40:30.999Z,2.08
2022-10-11T14:42:58.722Z,2.35
2022-10-11T14:45:26.166Z,2.30
2022-10-11T14:47:53.592Z,2.30
2022-10-11T14:50:32.546Z,2.17
2022-10-11T14:53:00.206Z,2.40
2022-10-11T14:55:29.035Z,2.53
2022-10-11T14:57:56.978Z,2.25
2022-10-11T15:00:28.159Z,2.25
2022-10-11T15:02:57.135Z,2.75
2022-10-11T15:05:32.811Z,2.47
2022-10-11T15:08:06.645Z,1.75
2022-10-11T15:10:38.526Z,2.33
2022-10-11T15:13:07.422Z,2.20
2022-10-11T15:15:40.563Z,1.88
2022-10-11T15:18:13.336Z,1.85
2022-10-11T15:20:44.917Z,2.40
2022-10-11T15:25:41.754Z,2.40
2022-10-11T15:28:25.720Z,1.90
2022-10-11T15:30:54.521Z,2.10
2022-10-11T15:33:23.013Z,2.00
2022-10-11T15:35:50.448Z,2.03
2022-10-11T15:38:25.609Z,2.20
2022-10-11T15:40:54.098Z,2.20
2022-10-11T15:43:24.742Z,1.58
2022-10-11T15:45:53.071Z,2.20
2022-10-11T15:48:22.618Z,2.20
2022-10-11T15:50:50.918Z,2.13
2022-10-11T15:53:28.406Z,2.17
2022-10-11T15:56:01.515Z,1.77
2022-10-11T15:58:36.227Z,2.08
2022-10-11T16:01:11.608Z,2.20
2022-10-11T16:03:39.653Z,2.08
2022-10-11T16:06:08.359Z,2.60
2022-10-11T16:08:36.673Z,2.45
2022-10-11T16:11:07.098Z,1.80
2022-10-11T16:13:35.531Z,2.22
2022-10-11T16:16:06.921Z,2.42
2022-10-11T16:18:36.302Z,2.05
2022-10-11T16:21:13.387Z,2.38
2022-10-11T16:23:40.977Z,2.42
2022-10-11T16:26:13.640Z,2.67
2022-10-11T16:28:41.960Z,1.98
2022-10-11T16:31:14.698Z,2.40
2022-10-11T16:33:48.222Z,2.30
2022-10-11T16:36:36.969Z,2.10
2022-10-11T16:39:16.297Z,2.03
2022-10-11T16:41:44.890Z,2.50
2022-10-11T16:44:19.112Z,2.53
2022-10-11T16:46:48.567Z,2.03
2022-10-11T16:49:25.792Z,2.50
2022-10-11T16:51:57.012Z,2.33
2022-10-11T16:54:30.244Z,2.53
2022-10-11T16:56:59.165Z,2.10
2022-10-11T16:59:27.059Z,2.45
2022-10-11T17:01:55.566Z,1.98
2022-10-11T17:04:23.773Z,2.70
2022-10-11T17:06:51.692Z,2.63
2022-10-11T17:09:21.171Z,2.10
2022-10-11T17:11:48.597Z,2.10
2022-10-11T17:14:16.547Z,2.45
2022-10-11T17:16:44.977Z,2.28
2022-10-11T17:19:15.520Z,2.00
2022-10-11T17:21:43.155Z,1.90
2022-10-11T17:24:10.682Z,2.75
2022-10-11T17:26:38.392Z,2.92
2022-10-11T17:29:05.899Z,2.50
2022-10-11T17:31:33.341Z,2.97
2022-10-11T17:34:01.329Z,2.30
2022-10-11T17:36:34.589Z,2.70
2022-10-11T17:39:07.683Z,2.45
2022-10-11T17:41:36.217Z,2.72
2022-10-11T17:44:04.653Z,2.80
2022-10-11T17:46:32.760Z,2.47
2022-10-11T17:49:04.746Z,2.50
2022-10-11T17:51:34.594Z,2.50
2022-10-11T17:54:02.808Z,2.17
2022-10-11T17:56:35.209Z,2.60
2022-10-11T17:59:05.879Z,2.33
2022-10-11T18:01:33.520Z,1.90
2022-10-11T18:04:04.866Z,2.53
2022-10-11T18:06:39.031Z,2.78
2022-10-11T18:09:07.204Z,2.58
2022-10-11T18:11:35.105Z,2.50
2022-10-11T18:14:05.168Z,3.45
2022-10-11T18:16:33.273Z,3.35
2022-10-11T18:19:04.519Z,2.65
2022-10-11T18:21:34.676Z,4.22
2022-10-11T18:24:08.028Z,5.72
2022-10-11T18:26:35.478Z,4.90
2022-10-11T18:29:04.603Z,4.40
2022-10-11T18:31:34.982Z,3.75
2022-10-11T18:34:05.480Z,3.17
2022-10-11T18:36:33.217Z,2.90
2022-10-11T18:39:06.256Z,3.58
2022-10-11T18:41:35.696Z,3.50
2022-10-11T18:44:07.296Z,3.97
2022-10-11T18:46:36.352Z,4.40
2022-10-11T18:49:04.851Z,3.70
2022-10-11T18:51:39.801Z,4.45
2022-10-11T18:54:10.931Z,4.38
2022-10-11T18:56:39.753Z,4.22
2022-10-11T18:59:08.180Z,4.15
2022-10-11T19:01:41.401Z,4.25
2022-10-11T19:04:11.167Z,4.15
2022-10-11T19:06:43.493Z,4.50
2022-10-11T19:09:17.644Z,4.65
2022-10-11T19:11:45.042Z,5.25
2022-10-11T19:14:16.395Z,4.78
2022-10-11T19:16:49.557Z,5.35
2022-10-11T19:19:20.394Z,5.22
2022-10-11T19:21:48.754Z,5.37
2022-10-11T19:24:20.374Z,5.47
2022-10-11T19:26:48.638Z,5.57
2022-10-11T19:29:20.002Z,5.10
2022-10-11T19:31:55.141Z,4.68
2022-10-11T19:34:27.403Z,5.32
2022-10-11T19:36:56.446Z,4.80
2022-10-11T19:39:25.422Z,4.80
2022-10-11T19:41:52.927Z,4.78
2022-10-11T19:44:20.632Z,4.72
2022-10-11T19:46:52.461Z,4.47
2022-10-11T19:49:24.808Z,4.40
2022-10-11T19:51:53.569Z,4.32
2022-10-11T19:54:21.156Z,4.85
2022-10-11T19:56:48.654Z,4.90
2022-10-11T19:59:16.459Z,4.97
2022-10-11T20:01:48.104Z,5.13
2022-10-11T20:04:50.976Z,4.40
2022-10-11T20:07:09.363Z,5.32
2022-10-11T20:09:36.910Z,5.00
2022-10-11T20:12:04.676Z,4.90
2022-10-11T20:14:32.450Z,5.18
2022-10-11T20:16:59.876Z,4.70
2022-10-11T20:19:31.176Z,4.40
2022-10-11T20:22:01.164Z,4.00
2022-10-11T20:24:32.722Z,4.53
2022-10-11T20:27:03.976Z,4.88
2022-10-11T20:29:31.659Z,5.80
2022-10-11T20:31:59.123Z,5.28
2022-10-11T20:34:27.633Z,4.88
2022-10-11T20:36:55.108Z,5.70
2022-10-11T20:39:23.605Z,5.55
2022-10-11T20:41:51.112Z,5.15
2022-10-11T20:44:18.518Z,4.47
2022-10-11T20:46:46.903Z,4.05
2022-10-11T20:49:14.646Z,4.88
2022-10-11T20:51:42.611Z,4.45
2022-10-11T20:54:12.269Z,4.75
2022-10-11T20:56:40.374Z,4.28
2022-10-11T20:59:08.396Z,4.50
2022-10-11T21:01:40.272Z,4.70
2022-10-11T21:04:14.731Z,4.85
2022-10-11T21:06:42.233Z,4.68
2022-10-11T21:09:13.990Z,4.40
2022-10-11T21:11:44.147Z,4.78
2022-10-11T21:14:11.563Z,4.68
2022-10-11T21:16:39.097Z,4.65
2022-10-11T21:19:06.644Z,4.15
2022-10-11T21:21:34.618Z,5.35
2022-10-11T21:24:03.292Z,5.03
2022-10-11T21:26:31.288Z,4.55
2022-10-11T21:29:03.903Z,4.88
2022-10-11T21:31:34.285Z,6.03
2022-10-11T21:34:03.237Z,4.78
2022-10-11T21:36:30.964Z,4.65
2022-10-11T21:38:58.352Z,4.53
2022-10-11T21:41:29.999Z,5.30
2022-10-11T21:43:58.820Z,4.95
2022-10-11T21:46:54.475Z,4.40
2022-10-11T21:49:20.134Z,3.60
2022-10-11T21:51:47.602Z,3.40
2022-10-11T21:54:15.254Z,4.13
2022-10-11T21:56:42.929Z,3.55
2022-10-11T21:59:12.636Z,3.72
2022-10-11T22:01:41.742Z,3.13
2022-10-11T22:04:11.425Z,3.20
2022-10-11T22:06:39.418Z,3.50
2022-10-11T22:09:08.807Z,4.32
2022-10-11T22:11:37.217Z,4.03
2022-10-11T22:14:04.968Z,4.10
2022-10-11T22:16:34.728Z,5.20
2022-10-11T22:19:02.537Z,4.65
2022-10-11T22:21:30.012Z,4.85
2022-10-11T22:23:57.494Z,5.47
2022-10-11T22:26:30.564Z,6.20
2022-10-11T22:29:00.216Z,6.30
2022-10-11T22:31:29.361Z,6.50
2022-10-11T22:33:59.747Z,7.38
2022-10-11T22:36:30.619Z,5.72
2022-10-11T22:38:59.118Z,6.50
2022-10-11T22:41:26.628Z,6.18
2022-10-11T22:43:54.083Z,5.30
2022-10-11T22:46:21.534Z,5.57
2022-10-11T22:48:49.009Z,4.93
2022-10-11T22:51:17.124Z,4.85
2022-10-11T22:53:44.862Z,5.10
2022-10-11T22:56:12.275Z,5.72
2022-10-11T22:58:40.641Z,5.20
2022-10-11T23:01:11.059Z,5.43
2022-10-11T23:03:38.916Z,6.25
2022-10-11T23:06:06.497Z,5.00
2022-10-11T23:08:34.050Z,4.82
2022-10-11T23:11:07.279Z,4.43
2022-10-11T23:13:35.187Z,4.85
2022-10-11T23:16:09.245Z,5.30
2022-10-11T23:18:37.532Z,5.22
2022-10-11T23:21:07.129Z,4.68
2022-10-11T23:23:35.384Z,5.72
2022-10-11T23:26:10.660Z,5.18
2022-10-11T23:28:38.314Z,4.80
2022-10-11T23:31:16.506Z,5.47
2022-10-11T23:33:46.889Z,5.60
2022-10-11T23:36:22.134Z,5.50
2022-10-11T23:38:54.092Z,4.50
2022-10-11T23:41:24.210Z,4.80
2022-10-11T23:43:51.912Z,5.00
2022-10-11T23:46:19.430Z,4.90
2022-10-11T23:48:48.283Z,4.53
2022-10-11T23:51:16.316Z,4.40
2022-10-11T23:53:43.781Z,5.65
2022-10-11T23:56:11.896Z,5.93
2022-10-11T23:58:39.561Z,6.45
